Ozark Regional Airport
KBPK : now visible

Airfield :











YOU CAN JOIN US ON...

 
LOGIN :

Register | Disclaimer

   EN    FR    IT 

 









Legend :    VFR   Marginal VFR   IFR   Intensive IFR   Very Intensive IFR
Visi :
Ceiling :
>= 8 km
>= 3000ft
5 to 8 km
1000 to 3000 ft
1500m to 5 km
500 to 1000 ft
800 to 1500m
200 to 500 ft
< 800m
< 200 ft
Symbols :   Thunderstorms  Fog  Heavy snow  Heavy precipitations  Wind > 20 kt







- Airport Elevation : 928 ft


KBPK - Ozark Regional

CURRENT METAR :
  • 201953Z AUTO 26008G15KT 10SM FEW032 24/20 A3011 RMK AO2 SLP184 T02440200

EXPIRED METARs :
  • 201853Z AUTO 21007KT 10SM 27/21 A3010 RMK AO2 SLP181 T02720206 $

TAF KBPK
Valid from the 20 at 18:00 until the 21 at 18:00 UTC


201739Z 2018/2118 19009G18KT P6SM -SHRA OVC035
TEMPO 2018/2022 5SM SHRA BR OVC025
FM210000 16009KT P6SM VCSH OVC030
FM210900 16007KT P6SM OVC100
FM211500 17010G17KT P6SM OVC250
No reported NOTAMs for that airfield.



MET'MAP, your aeronautical weather chart ! - Copyright ORBIFLY December 2007 - Disclaimer

ORBIFLY MET'MAP TEAM :

Programming & Development : Alexandra Zaïnal
Concept & Development : Baudouin d'Aumeries
Co-Development & Prog : Marc-Olivier Méhu
Technical & hardware support : Manuel Goepfert

Contact : metmap@orbifly.com




SOURCES & CREDITS :

   NOAA       Earth
Advisory